Time;durP1;ratioP1;P1;durP2;ratioP2;P2;SDS_P1;SDS_P2;PMS_P1;PMS_P2;Temp;Humidity;BMP_temperature;BMP_pressure;BME280_temperature;BME280_humidity;BME280_pressure;Samples;Min_cycle;Max_cycle;Signal;HPM_P1;HPM_P2
2022/07/12 00:01:33;;;;;;;10.60;5.60;;;17.60;99.90;;;;;;5031379;28;20180;-64
2022/07/12 00:03:58;;;;;;;14.00;6.27;;;17.60;99.90;;;;;;5031545;28;20191;-64
2022/07/12 00:06:24;;;;;;;14.80;6.53;;;17.60;99.90;;;;;;5030435;28;20539;-64
2022/07/12 00:08:50;;;;;;;10.17;6.00;;;17.70;99.90;;;;;;5029682;28;20187;-64
2022/07/12 00:11:15;;;;;;;6.63;4.70;;;17.70;99.90;;;;;;5030067;28;20194;-64
2022/07/12 00:13:41;;;;;;;7.10;5.97;;;17.60;99.90;;;;;;5030688;28;20195;-64
2022/07/12 00:16:07;;;;;;;9.30;6.00;;;17.50;99.90;;;;;;5030330;28;20316;-64
2022/07/12 00:18:33;;;;;;;5.67;5.17;;;17.50;99.90;;;;;;5029930;28;20286;-64
2022/07/12 00:20:58;;;;;;;8.40;5.90;;;17.50;99.90;;;;;;5030636;28;20428;-64
2022/07/12 00:23:24;;;;;;;5.83;4.80;;;17.50;99.90;;;;;;5029787;28;20227;-64
2022/07/12 00:25:50;;;;;;;11.40;5.63;;;17.60;99.90;;;;;;5030470;28;20168;-66
2022/07/12 00:28:16;;;;;;;7.43;4.93;;;17.60;99.90;;;;;;5029364;28;20261;-62
2022/07/12 00:30:41;;;;;;;5.67;5.13;;;17.60;99.90;;;;;;5030050;28;20226;-65
2022/07/12 00:33:08;;;;;;;8.27;5.80;;;17.60;99.90;;;;;;5030720;28;20180;-64
2022/07/12 00:35:34;;;;;;;5.80;5.20;;;17.60;99.90;;;;;;5030461;28;20192;-64
2022/07/12 00:38:00;;;;;;;5.80;5.20;;;17.50;99.90;;;;;;5029838;28;20435;-64
2022/07/12 00:40:25;;;;;;;6.60;5.87;;;17.40;99.90;;;;;;5030935;28;20372;-64
2022/07/12 00:42:51;;;;;;;6.83;6.20;;;17.30;99.90;;;;;;5039812;28;20167;-63
2022/07/12 00:45:18;;;;;;;4.70;4.30;;;17.30;99.90;;;;;;5048626;28;20171;-65
2022/07/12 00:47:45;;;;;;;12.37;6.00;;;17.30;99.90;;;;;;5050995;28;20217;-64
2022/07/12 00:50:16;;;;;;;12.93;5.60;;;17.30;99.90;;;;;;5049600;28;20409;-64
2022/07/12 00:52:44;;;;;;;12.70;5.97;;;17.30;99.90;;;;;;5050910;28;20413;-63
2022/07/12 00:55:10;;;;;;;7.23;5.30;;;17.30;99.90;;;;;;5047727;28;20407;-65
2022/07/12 00:57:38;;;;;;;5.47;4.97;;;17.30;99.90;;;;;;5030917;28;20441;-65
2022/07/12 01:00:07;;;;;;;6.60;5.37;;;17.30;99.90;;;;;;5030129;28;20442;-64
2022/07/12 01:02:34;;;;;;;7.90;6.43;;;17.30;99.90;;;;;;5030590;28;20410;-64
2022/07/12 01:05:02;;;;;;;8.70;6.03;;;17.30;99.90;;;;;;5030438;28;20850;-62
2022/07/12 01:07:28;;;;;;;6.80;6.10;;;17.20;99.90;;;;;;5029738;28;20911;-64
2022/07/12 01:09:54;;;;;;;6.50;5.90;;;17.20;99.90;;;;;;5030540;28;20418;-64
2022/07/12 01:12:24;;;;;;;9.33;5.70;;;17.00;1.00;;;;;;5030156;28;20184;-64
2022/07/12 01:14:51;;;;;;;7.83;5.10;;;17.00;1.00;;;;;;5030868;28;20430;-63
2022/07/12 01:17:20;;;;;;;7.57;6.00;;;17.10;1.00;;;;;;5029702;28;20414;-63
2022/07/12 01:19:47;;;;;;;13.00;6.40;;;17.10;1.00;;;;;;5030351;28;20461;-63
2022/07/12 01:22:15;;;;;;;6.30;5.70;;;17.10;1.00;;;;;;5028584;28;20498;-64
2022/07/12 01:24:41;;;;;;;6.43;5.87;;;17.10;1.00;;;;;;5030185;28;20411;-64
2022/07/12 01:27:07;;;;;;;6.10;5.53;;;17.10;99.90;;;;;;5029451;28;20510;-64
2022/07/12 01:29:33;;;;;;;5.93;5.33;;;17.10;99.90;;;;;;5029770;28;20926;-64
2022/07/12 01:32:24;;;;;;;6.50;5.57;;;17.00;1.00;;;;;;5029206;28;20504;-64
2022/07/12 01:34:52;;;;;;;8.70;5.67;;;17.10;99.90;;;;;;5029853;28;20161;-64
2022/07/12 01:37:18;;;;;;;9.60;6.77;;;17.10;99.90;;;;;;5028440;28;20441;-64
2022/07/12 01:39:45;;;;;;;13.10;7.67;;;17.00;99.90;;;;;;5029218;28;20460;-64
2022/07/12 01:42:11;;;;;;;14.57;6.47;;;17.00;99.90;;;;;;5033077;28;20493;-64
2022/07/12 01:44:36;;;;;;;12.20;6.07;;;17.10;99.90;;;;;;5049814;28;20578;-64
2022/07/12 01:47:03;;;;;;;9.40;5.50;;;17.00;99.90;;;;;;5048560;28;20185;-63
2022/07/12 01:49:28;;;;;;;9.37;5.60;;;17.00;99.90;;;;;;5048728;28;20210;-62
2022/07/12 01:51:58;;;;;;;11.83;5.57;;;17.00;99.90;;;;;;5048716;28;20449;-65
2022/07/12 01:54:25;;;;;;;13.00;5.50;;;17.00;99.90;;;;;;5046282;28;20199;-63
2022/07/12 01:56:52;;;;;;;5.37;4.87;;;16.90;99.90;;;;;;5028806;28;20414;-63
2022/07/12 01:59:18;;;;;;;7.43;6.10;;;16.90;99.90;;;;;;5029263;28;20801;-61
2022/07/12 02:01:45;;;;;;;6.27;5.67;;;16.90;99.90;;;;;;5028751;28;20601;-64
2022/07/12 02:04:15;;;;;;;7.13;5.90;;;16.90;99.90;;;;;;5029504;28;20399;-64
2022/07/12 02:06:41;;;;;;;12.83;6.00;;;16.90;99.90;;;;;;5028190;28;20890;-63
2022/07/12 02:09:07;;;;;;;10.20;5.77;;;16.90;99.90;;;;;;5028398;28;20418;-64
2022/07/12 02:11:33;;;;;;;13.30;5.73;;;16.90;99.90;;;;;;5028756;28;20581;-63
2022/07/12 02:13:58;;;;;;;8.60;5.10;;;16.90;99.90;;;;;;5027850;28;20607;-62
2022/07/12 02:16:24;;;;;;;6.70;5.10;;;16.90;99.90;;;;;;5028130;28;20246;-64
2022/07/12 02:18:49;;;;;;;6.00;5.00;;;17.00;1.00;;;;;;5028159;28;20699;-65
2022/07/12 02:21:15;;;;;;;6.27;5.37;;;17.00;99.90;;;;;;5029078;28;20198;-65
2022/07/12 02:23:41;;;;;;;8.23;5.03;;;17.00;99.90;;;;;;5028948;28;20201;-63
2022/07/12 02:26:06;;;;;;;10.07;5.93;;;17.00;1.00;;;;;;5028577;28;20171;-64
2022/07/12 02:28:32;;;;;;;17.87;6.13;;;16.90;1.00;;;;;;5028116;28;20195;-64
2022/07/12 02:30:58;;;;;;;9.67;5.30;;;16.90;1.00;;;;;;5028252;28;20674;-64
2022/07/12 02:33:24;;;;;;;9.03;5.60;;;16.90;1.00;;;;;;5028819;28;20637;-64
2022/07/12 02:35:50;;;;;;;15.07;6.00;;;16.90;1.00;;;;;;5028755;28;20494;-64
2022/07/12 02:38:16;;;;;;;19.63;5.73;;;16.90;1.00;;;;;;5027220;28;20207;-63
2022/07/12 02:40:53;;;;;;;11.17;5.37;;;16.90;1.00;;;;;;5028343;28;20636;-62
2022/07/12 02:43:39;;;;;;;10.47;5.20;;;16.90;1.00;;;;;;5041557;28;20185;-62
2022/07/12 02:46:07;;;;;;;7.27;5.07;;;16.90;1.00;;;;;;5052346;28;20418;-66
2022/07/12 02:48:34;;;;;;;7.60;5.43;;;16.90;1.00;;;;;;5047687;28;20619;-64
2022/07/12 02:51:00;;;;;;;8.20;6.40;;;17.00;99.90;;;;;;5048763;28;20507;-64
2022/07/12 02:53:26;;;;;;;18.23;5.60;;;17.00;99.90;;;;;;5046805;28;21043;-61
2022/07/12 02:55:52;;;;;;;12.50;6.47;;;17.00;99.90;;;;;;5039209;28;20585;-64
2022/07/12 02:58:18;;;;;;;8.20;4.43;;;17.00;99.90;;;;;;5027096;28;20199;-64
2022/07/12 03:00:46;;;;;;;8.60;4.57;;;17.00;99.90;;;;;;5028006;28;20480;-64
2022/07/12 03:03:13;;;;;;;12.17;5.50;;;17.00;99.90;;;;;;5028204;28;20290;-64
2022/07/12 03:05:39;;;;;;;18.97;6.07;;;17.10;99.90;;;;;;5028753;28;21049;-64
2022/07/12 03:08:06;;;;;;;7.03;6.30;;;17.10;99.90;;;;;;5027820;28;20442;-66
2022/07/12 03:10:33;;;;;;;9.23;5.70;;;17.00;99.90;;;;;;5028316;28;20402;-63
2022/07/12 03:12:59;;;;;;;13.67;5.23;;;17.00;99.90;;;;;;5028057;28;20427;-64
2022/07/12 03:15:24;;;;;;;19.47;6.30;;;16.90;99.90;;;;;;5028472;28;20433;-64
2022/07/12 03:17:50;;;;;;;18.73;7.13;;;16.90;99.90;;;;;;5028427;28;20249;-63
2022/07/12 03:20:16;;;;;;;32.10;7.67;;;17.00;99.90;;;;;;5028239;28;20239;-65
2022/07/12 03:22:43;;;;;;;24.47;6.73;;;17.00;99.90;;;;;;5028112;28;20202;-64
2022/07/12 03:25:09;;;;;;;24.23;6.97;;;16.90;99.90;;;;;;5028698;28;20662;-64
2022/07/12 03:27:35;;;;;;;43.23;10.60;;;16.90;99.90;;;;;;5028265;28;20517;-64
2022/07/12 03:30:01;;;;;;;13.23;6.30;;;16.90;99.90;;;;;;5031779;28;20517;-64
2022/07/12 03:32:27;;;;;;;7.00;5.33;;;16.90;99.90;;;;;;5031529;28;20179;-64
2022/07/12 03:34:53;;;;;;;7.63;5.40;;;16.90;99.90;;;;;;5031547;28;20176;-63
2022/07/12 03:37:18;;;;;;;15.23;5.83;;;16.90;99.90;;;;;;5040079;28;20167;-64
2022/07/12 03:39:44;;;;;;;11.60;5.53;;;16.90;99.90;;;;;;5037946;28;20203;-63
2022/07/12 03:42:13;;;;;;;14.03;6.07;;;17.00;99.90;;;;;;5036593;28;20171;-63
2022/07/12 03:44:39;;;;;;;15.03;5.77;;;17.00;99.90;;;;;;5052973;28;20163;-65
2022/07/12 03:47:05;;;;;;;17.43;7.70;;;16.90;99.90;;;;;;5051356;28;20992;-63
2022/07/12 03:49:31;;;;;;;15.07;5.90;;;16.90;99.90;;;;;;5051926;28;20505;-66
2022/07/12 03:51:56;;;;;;;60.53;9.10;;;16.90;99.90;;;;;;5050875;28;20705;-65
2022/07/12 03:54:22;;;;;;;19.40;7.03;;;16.90;99.90;;;;;;5051827;28;20478;-66
2022/07/12 03:59:33;;;;;;;20.60;6.17;;;17.00;99.90;;;;;;5031387;28;20264;-64
2022/07/12 04:01:58;;;;;;;18.00;6.30;;;17.00;99.90;;;;;;5030616;28;20755;-64
2022/07/12 04:04:24;;;;;;;8.57;4.90;;;17.00;99.90;;;;;;5031550;28;20213;-65
2022/07/12 04:06:50;;;;;;;20.10;7.27;;;16.90;99.90;;;;;;5029152;28;20171;-65
2022/07/12 04:09:16;;;;;;;8.10;5.30;;;16.90;99.90;;;;;;5030285;28;20213;-65
2022/07/12 04:11:41;;;;;;;11.40;5.20;;;16.90;99.90;;;;;;5030615;28;20179;-65
2022/07/12 04:14:07;;;;;;;14.37;6.50;;;16.80;99.90;;;;;;5031091;28;20472;-65
2022/07/12 04:16:33;;;;;;;12.23;5.67;;;16.80;99.90;;;;;;5030580;28;20171;-66
2022/07/12 04:18:58;;;;;;;37.93;8.47;;;16.80;99.90;;;;;;5029847;28;20298;-66
2022/07/12 04:21:24;;;;;;;44.43;10.20;;;16.80;99.90;;;;;;5030796;28;20167;-65
2022/07/12 04:23:50;;;;;;;28.83;7.83;;;16.90;99.90;;;;;;5030378;28;20252;-66
2022/07/12 04:26:16;;;;;;;23.13;7.97;;;17.00;99.90;;;;;;5030164;28;20176;-63
2022/07/12 04:28:42;;;;;;;30.20;8.63;;;17.10;99.90;;;;;;5030031;28;20188;-64
2022/07/12 04:31:07;;;;;;;42.47;8.57;;;17.00;99.90;;;;;;5030077;28;20186;-65
2022/07/12 04:33:33;;;;;;;32.67;7.30;;;17.00;99.90;;;;;;5030974;28;20402;-66
2022/07/12 04:35:59;;;;;;;19.53;7.67;;;17.20;99.90;;;;;;5029295;28;20199;-66
2022/07/12 04:38:25;;;;;;;32.47;9.47;;;17.40;99.90;;;;;;5029114;28;20303;-66
2022/07/12 04:40:51;;;;;;;30.80;8.10;;;17.80;99.90;;;;;;5029525;28;20163;-67
2022/07/12 04:43:16;;;;;;;10.53;6.23;;;17.90;99.90;;;;;;5043474;28;20171;-66
2022/07/12 04:45:44;;;;;;;14.80;6.20;;;18.00;99.90;;;;;;5049952;28;20204;-66
2022/07/12 04:48:10;;;;;;;11.57;6.20;;;18.00;99.90;;;;;;5049645;28;20199;-65
2022/07/12 04:50:36;;;;;;;15.30;6.00;;;18.10;99.90;;;;;;5051096;28;20413;-66
2022/07/12 04:53:02;;;;;;;8.80;6.47;;;18.20;99.90;;;;;;5049950;28;20416;-66
2022/07/12 04:55:28;;;;;;;12.17;6.50;;;18.10;99.90;;;;;;5043843;28;20176;-65
2022/07/12 04:57:53;;;;;;;11.03;5.57;;;18.10;99.90;;;;;;5029159;28;20210;-66
2022/07/12 05:00:19;;;;;;;9.03;5.10;;;18.00;99.90;;;;;;5029017;28;20210;-66
2022/07/12 05:02:45;;;;;;;18.63;6.53;;;18.00;99.90;;;;;;5028074;28;20168;-66
2022/07/12 05:05:10;;;;;;;21.87;6.70;;;18.00;99.90;;;;;;5030524;28;20178;-64
2022/07/12 05:07:36;;;;;;;10.90;6.10;;;18.20;99.90;;;;;;5028929;28;20881;-67
2022/07/12 05:10:02;;;;;;;23.47;7.07;;;18.30;99.90;;;;;;5029645;28;20251;-64
2022/07/12 05:12:27;;;;;;;32.60;6.83;;;18.50;99.90;;;;;;5029731;28;20176;-64
2022/07/12 05:14:53;;;;;;;46.43;8.47;;;18.90;99.90;;;;;;5030107;28;20329;-65
2022/07/12 05:17:19;;;;;;;15.93;6.20;;;19.30;99.90;;;;;;5029152;28;20217;-65
2022/07/12 05:19:45;;;;;;;20.20;7.20;;;19.50;99.90;;;;;;5029835;28;20199;-64
2022/07/12 05:22:11;;;;;;;38.80;9.53;;;19.60;99.90;;;;;;5029075;28;20652;-65
2022/07/12 05:24:36;;;;;;;14.33;6.27;;;19.70;99.90;;;;;;5031692;28;20179;-64
2022/07/12 05:27:02;;;;;;;48.80;9.97;;;19.80;99.90;;;;;;5039248;28;20236;-64
2022/07/12 05:29:28;;;;;;;18.50;6.53;;;19.90;99.90;;;;;;5028893;28;20667;-64
2022/07/12 05:31:56;;;;;;;13.33;6.27;;;20.10;99.90;;;;;;5028993;28;20258;-65
2022/07/12 05:34:21;;;;;;;29.33;7.67;;;20.40;99.90;;;;;;5029445;28;20176;-66
2022/07/12 05:36:47;;;;;;;13.77;8.00;;;20.50;99.90;;;;;;5029245;28;20554;-64
2022/07/12 05:39:13;;;;;;;13.50;6.93;;;20.90;99.90;;;;;;5028428;28;20226;-67
2022/07/12 05:41:39;;;;;;;25.00;9.63;;;21.00;99.90;;;;;;5028708;28;20172;-66
2022/07/12 05:44:04;;;;;;;35.23;10.00;;;21.30;99.90;;;;;;5048669;28;20241;-67
2022/07/12 05:46:30;;;;;;;82.43;11.23;;;21.40;99.90;;;;;;5048711;28;20258;-67
2022/07/12 05:48:56;;;;;;;87.47;11.90;;;21.80;99.90;;;;;;5048029;28;20905;-67
2022/07/12 05:54:06;;;;;;;16.50;6.87;;;22.00;99.90;;;;;;5051168;28;20173;-68
2022/07/12 05:56:32;;;;;;;34.47;7.47;;;22.00;99.90;;;;;;5036135;28;20844;-69
2022/07/12 05:58:58;;;;;;;22.63;6.50;;;22.30;99.90;;;;;;5030184;28;20672;-67
2022/07/12 06:01:25;;;;;;;28.53;6.30;;;22.30;99.90;;;;;;5031993;28;20564;-67
2022/07/12 06:03:50;;;;;;;4.43;3.70;;;22.20;99.90;;;;;;5035084;28;20430;-67
2022/07/12 06:06:16;;;;;;;37.80;7.43;;;22.00;99.90;;;;;;5029784;28;20395;-67
2022/07/12 06:08:42;;;;;;;23.80;5.40;;;22.10;99.90;;;;;;5029270;28;20638;-66
2022/07/12 06:11:08;;;;;;;6.40;4.60;;;22.20;99.90;;;;;;5029302;28;20178;-67
2022/07/12 06:13:33;;;;;;;7.40;3.70;;;22.20;99.90;;;;;;5029369;28;20255;-65
2022/07/12 06:15:59;;;;;;;3.40;3.10;;;21.50;99.90;;;;;;5028521;28;20503;-67
2022/07/12 06:18:25;;;;;;;10.20;3.70;;;20.90;99.90;;;;;;5028460;28;20191;-66
2022/07/12 06:20:52;;;;;;;12.87;3.80;;;21.40;99.90;;;;;;5028516;28;20302;-67
2022/07/12 06:23:18;;;;;;;5.57;3.73;;;22.20;99.90;;;;;;5027872;28;20514;-66
2022/07/12 06:25:45;;;;;;;5.07;3.07;;;22.00;99.90;;;;;;5028291;28;20225;-67
2022/07/12 06:28:11;;;;;;;16.43;4.67;;;21.40;99.90;;;;;;5027603;28;20521;-66
2022/07/12 06:30:37;;;;;;;5.07;3.40;;;21.60;99.90;;;;;;5027882;28;20442;-66
2022/07/12 06:33:03;;;;;;;3.30;3.00;;;21.70;99.90;;;;;;5028183;28;20954;-66
2022/07/12 06:35:29;;;;;;;3.90;3.60;;;21.70;99.90;;;;;;5027973;28;20557;-66
2022/07/12 06:37:55;;;;;;;3.33;3.03;;;20.60;99.90;;;;;;5027304;28;20211;-65
2022/07/12 06:40:20;;;;;;;10.00;3.50;;;20.40;99.90;;;;;;5028964;28;20235;-66
2022/07/12 06:42:48;;;;;;;3.27;2.30;;;20.90;99.90;;;;;;5026810;28;20266;-66
2022/07/12 06:45:14;;;;;;;12.83;3.67;;;20.70;99.90;;;;;;5023980;28;20195;-66
2022/07/12 06:47:40;;;;;;;2.93;1.93;;;21.40;99.90;;;;;;5025567;28;20454;-66
2022/07/12 06:50:06;;;;;;;6.77;2.80;;;21.10;99.90;;;;;;5027877;28;20569;-67
2022/07/12 06:52:32;;;;;;;7.30;3.30;;;21.70;99.90;;;;;;5027078;28;20266;-67
2022/07/12 06:54:58;;;;;;;43.53;7.67;;;22.50;99.90;;;;;;5016790;28;20522;-65
2022/07/12 06:57:26;;;;;;;11.17;3.70;;;23.10;99.90;;;;;;5027858;28;20252;-65
2022/07/12 06:59:52;;;;;;;5.80;2.50;;;23.30;99.90;;;;;;5035533;28;20480;-67
2022/07/12 07:02:18;;;;;;;9.67;3.30;;;22.90;99.90;;;;;;5021599;28;20825;-67
2022/07/12 07:04:43;;;;;;;4.17;2.63;;;22.40;99.90;;;;;;5030328;28;20175;-66
2022/07/12 07:07:12;;;;;;;3.40;2.40;;;22.50;99.90;;;;;;5030254;28;20195;-65
2022/07/12 07:09:38;;;;;;;32.83;5.37;;;22.20;99.90;;;;;;5033425;28;20171;-66
2022/07/12 07:12:05;;;;;;;19.10;3.73;;;23.00;99.90;;;;;;5029369;28;20955;-66
2022/07/12 07:14:30;;;;;;;110.33;12.73;;;23.60;99.90;;;;;;5029635;28;20197;-67
2022/07/12 07:16:56;;;;;;;108.13;13.90;;;23.80;99.90;;;;;;5027972;28;20470;-67
2022/07/12 07:19:26;;;;;;;3.80;2.77;;;24.10;99.90;;;;;;5029112;28;20598;-67
2022/07/12 07:21:54;;;;;;;9.00;2.77;;;23.30;99.90;;;;;;5028626;28;20247;-67
2022/07/12 07:24:20;;;;;;;16.60;4.10;;;22.90;99.90;;;;;;5024288;28;20509;-67
2022/07/12 07:26:46;;;;;;;6.60;2.50;;;22.50;99.90;;;;;;5028444;28;20521;-66
2022/07/12 07:31:56;;;;;;;4.67;3.00;;;22.60;99.90;;;;;;5028720;28;20536;-67
2022/07/12 07:34:23;;;;;;;14.87;3.90;;;22.20;99.90;;;;;;5029263;28;20505;-66
2022/07/12 07:36:52;;;;;;;17.67;3.93;;;23.30;99.90;;;;;;5027812;28;20642;-66
2022/07/12 07:39:18;;;;;;;5.90;3.10;;;23.50;99.90;;;;;;5027627;28;20458;-67
2022/07/12 07:41:44;;;;;;;50.43;6.30;;;23.80;99.90;;;;;;5027550;28;20447;-66
2022/07/12 07:44:09;;;;;;;152.93;16.37;;;24.40;99.90;;;;;;5027961;28;20247;-67
2022/07/12 07:46:35;;;;;;;6.07;3.47;;;24.80;99.90;;;;;;5027988;28;20211;-66
2022/07/12 07:49:01;;;;;;;269.63;24.67;;;24.30;99.90;;;;;;5027165;28;20660;-66
2022/07/12 07:51:27;;;;;;;49.97;6.80;;;24.50;99.90;;;;;;5027950;28;20869;-66
2022/07/12 07:53:52;;;;;;;35.10;5.50;;;24.40;99.90;;;;;;5027255;28;20422;-66
2022/07/12 07:56:18;;;;;;;17.83;3.60;;;24.00;99.90;;;;;;5027371;28;21125;-66
2022/07/12 07:58:44;;;;;;;65.07;7.67;;;23.90;99.90;;;;;;5026878;28;20620;-66
2022/07/12 08:01:10;;;;;;;31.37;4.37;;;24.40;99.90;;;;;;5027368;28;20179;-66
2022/07/12 08:03:35;;;;;;;4.70;2.20;;;24.60;99.90;;;;;;5025576;28;20599;-66
2022/07/12 08:06:01;;;;;;;17.80;3.90;;;23.80;99.90;;;;;;5026903;28;20180;-66
2022/07/12 08:08:30;;;;;;;11.27;2.57;;;24.30;99.90;;;;;;5027342;28;20528;-67
2022/07/12 08:10:56;;;;;;;4.43;2.47;;;24.70;99.90;;;;;;5032435;28;20807;-67
2022/07/12 08:13:22;;;;;;;2.80;2.40;;;24.00;99.90;;;;;;5026618;28;20792;-67
2022/07/12 08:15:48;;;;;;;3.93;2.30;;;22.90;99.90;;;;;;5025737;28;20934;-67
2022/07/12 08:18:14;;;;;;;11.33;3.47;;;23.60;99.90;;;;;;5026792;28;20469;-66
2022/07/12 08:20:39;;;;;;;11.90;2.53;;;24.30;99.90;;;;;;5027694;28;20172;-68
2022/07/12 08:23:06;;;;;;;14.20;3.30;;;24.80;99.90;;;;;;5027094;28;20172;-68
2022/07/12 08:25:31;;;;;;;31.70;5.07;;;25.20;99.90;;;;;;5027724;28;20659;-67
2022/07/12 08:27:57;;;;;;;27.33;4.60;;;24.80;99.90;;;;;;5026367;28;20430;-67
2022/07/12 08:30:23;;;;;;;5.47;3.00;;;24.70;99.90;;;;;;5026772;28;20180;-67
2022/07/12 08:32:49;;;;;;;4.57;2.33;;;24.60;99.90;;;;;;5027548;28;20186;-67
2022/07/12 08:35:15;;;;;;;22.97;3.70;;;24.40;99.90;;;;;;5027101;28;20172;-67
2022/07/12 08:37:41;;;;;;;4.03;2.60;;;24.20;99.90;;;;;;5027006;28;20772;-67
2022/07/12 08:40:08;;;;;;;7.73;2.57;;;24.20;99.90;;;;;;5027311;28;20695;-67
2022/07/12 08:42:35;;;;;;;3.73;2.30;;;23.70;99.90;;;;;;5048615;28;20841;-67
2022/07/12 08:45:07;;;;;;;13.50;3.97;;;23.70;99.90;;;;;;5045588;28;20936;-67
2022/07/12 08:47:33;;;;;;;16.40;3.90;;;23.70;99.90;;;;;;5041221;28;20449;-67
2022/07/12 08:50:27;;;;;;;6.00;2.53;;;24.10;99.90;;;;;;5045878;28;20533;-67
2022/07/12 08:52:54;;;;;;;3.90;2.60;;;23.80;99.90;;;;;;5039603;28;20329;-66
2022/07/12 08:55:24;;;;;;;2.63;2.23;;;22.80;99.90;;;;;;5052624;28;20413;-67
2022/07/12 08:57:52;;;;;;;2.90;2.23;;;22.70;99.90;;;;;;5048239;28;20506;-66
2022/07/12 09:00:19;;;;;;;4.43;2.60;;;22.60;99.90;;;;;;5047930;28;20461;-66
2022/07/12 09:03:01;;;;;;;13.40;4.20;;;22.50;99.90;;;;;;5049006;28;20417;-66
2022/07/12 09:05:29;;;;;;;12.27;2.60;;;22.80;99.90;;;;;;5047295;28;20406;-67
2022/07/12 09:08:04;;;;;;;6.30;2.40;;;23.10;99.90;;;;;;5046853;28;20930;-67
2022/07/12 09:10:30;;;;;;;23.20;3.40;;;22.80;99.90;;;;;;5048749;28;20426;-66
2022/07/12 09:12:56;;;;;;;4.27;2.53;;;23.10;99.90;;;;;;5048508;28;20471;-67
2022/07/12 09:15:23;;;;;;;10.90;2.43;;;23.40;99.90;;;;;;5047965;28;20406;-66
2022/07/12 09:18:17;;;;;;;5.20;2.33;;;23.30;99.90;;;;;;5046544;28;20197;-67
2022/07/12 09:20:50;;;;;;;3.10;2.00;;;23.90;99.90;;;;;;5048659;28;20527;-67
2022/07/12 09:23:17;;;;;;;6.07;2.07;;;23.20;99.90;;;;;;5048197;28;20420;-67
2022/07/12 09:25:47;;;;;;;3.50;1.93;;;23.00;99.90;;;;;;5047760;28;20413;-69
2022/07/12 09:28:13;;;;;;;2.40;1.90;;;23.20;99.90;;;;;;5047338;28;20421;-67
2022/07/12 09:30:53;;;;;;;1.90;1.70;;;23.30;99.90;;;;;;5048452;28;20504;-67
2022/07/12 09:36:06;;;;;;;4.87;1.90;;;22.80;99.90;;;;;;5047074;28;20754;-67
2022/07/12 09:38:35;;;;;;;4.00;2.10;;;22.90;99.90;;;;;;5047770;28;20540;-67
2022/07/12 09:41:01;;;;;;;6.33;2.67;;;23.30;99.90;;;;;;5047962;28;20540;-67
2022/07/12 09:43:28;;;;;;;11.73;3.67;;;23.70;99.90;;;;;;5048893;28;20421;-68
2022/07/12 09:45:54;;;;;;;11.77;3.00;;;23.90;99.90;;;;;;5047554;28;20409;-68
2022/07/12 09:48:21;;;;;;;23.73;5.03;;;24.10;99.90;;;;;;5047798;28;20449;-67
2022/07/12 09:50:51;;;;;;;16.43;2.73;;;24.20;99.90;;;;;;5049697;28;20837;-67
2022/07/12 09:53:29;;;;;;;13.73;3.17;;;24.20;99.90;;;;;;5048803;28;20734;-67
2022/07/12 09:55:55;;;;;;;8.10;2.73;;;24.10;99.90;;;;;;5047406;28;20462;-66
2022/07/12 09:58:49;;;;;;;4.50;3.07;;;24.10;99.90;;;;;;5047427;28;20560;-68
2022/07/12 10:01:16;;;;;;;34.67;5.10;;;24.20;99.90;;;;;;5045462;28;20179;-67
2022/07/12 10:03:43;;;;;;;11.20;5.53;;;24.30;99.90;;;;;;5045582;28;20489;-67
2022/07/12 10:06:11;;;;;;;4.80;2.50;;;24.60;99.90;;;;;;5048385;28;20424;-67
2022/07/12 10:08:36;;;;;;;2.50;2.10;;;24.80;99.90;;;;;;5046223;28;20433;-67
2022/07/12 10:11:02;;;;;;;3.27;2.20;;;24.90;99.90;;;;;;5046884;28;20508;-67
2022/07/12 10:13:30;;;;;;;7.43;3.10;;;25.10;99.90;;;;;;5046473;28;20202;-67
2022/07/12 10:16:02;;;;;;;45.00;6.53;;;25.30;99.90;;;;;;5046530;28;20189;-66
2022/07/12 10:18:28;;;;;;;3.37;2.13;;;25.30;99.90;;;;;;5045921;28;20452;-68
2022/07/12 10:20:54;;;;;;;1.83;1.60;;;25.10;99.90;;;;;;5047548;28;20504;-68
2022/07/12 10:23:20;;;;;;;3.10;1.70;;;24.70;99.90;;;;;;5048108;28;20493;-68
2022/07/12 10:25:49;;;;;;;10.73;2.60;;;24.20;98.80;;;;;;5047206;28;20178;-67
2022/07/12 10:28:15;;;;;;;3.00;2.07;;;24.10;99.40;;;;;;5045055;28;20353;-67
2022/07/12 10:30:47;;;;;;;2.67;1.70;;;24.00;99.90;;;;;;5046632;28;21387;-67
2022/07/12 10:33:21;;;;;;;2.47;2.27;;;24.20;99.90;;;;;;5034029;28;20185;-67
2022/07/12 10:36:06;;;;;;;4.13;1.77;;;24.10;99.90;;;;;;5047354;28;20413;-68
2022/07/12 10:38:33;;;;;;;3.00;2.20;;;23.90;98.30;;;;;;5045382;28;20957;-68
2022/07/12 10:41:20;;;;;;;3.90;1.50;;;23.80;99.90;;;;;;5048192;28;20501;-67
2022/07/12 10:44:04;;;;;;;5.17;2.20;;;24.00;98.30;;;;;;5047482;28;20494;-67
2022/07/12 10:46:30;;;;;;;1.90;1.70;;;23.90;97.60;;;;;;5046481;28;20402;-69
2022/07/12 10:49:28;;;;;;;10.93;2.63;;;23.60;96.70;;;;;;5047193;28;20812;-68
2022/07/12 10:52:11;;;;;;;5.23;1.83;;;24.00;99.10;;;;;;5045479;28;20421;-67
2022/07/12 10:54:43;;;;;;;2.33;1.93;;;24.00;97.50;;;;;;5045712;28;20904;-68
2022/07/12 10:57:09;;;;;;;3.10;2.07;;;24.00;97.60;;;;;;5044792;28;20857;-68
2022/07/12 10:59:38;;;;;;;4.90;2.17;;;23.80;98.20;;;;;;5044877;28;20500;-67
2022/07/12 11:02:05;;;;;;;3.40;2.30;;;23.60;98.30;;;;;;5044647;28;20225;-67
2022/07/12 11:04:31;;;;;;;5.20;2.23;;;23.60;98.60;;;;;;5046084;28;20421;-67
2022/07/12 11:07:01;;;;;;;4.17;1.83;;;23.60;99.90;;;;;;5045382;28;20422;-68
2022/07/12 11:09:28;;;;;;;4.43;1.73;;;23.50;98.60;;;;;;5046045;28;20487;-67
2022/07/12 11:11:54;;;;;;;2.10;1.90;;;23.60;97.00;;;;;;5045278;28;20927;-67
2022/07/12 11:14:22;;;;;;;3.30;1.70;;;23.90;96.70;;;;;;5046022;28;20571;-67
2022/07/12 11:16:51;;;;;;;3.40;1.80;;;23.70;95.20;;;;;;5044556;28;20183;-67
2022/07/12 11:19:24;;;;;;;2.90;1.90;;;23.90;96.10;;;;;;5039231;28;20453;-67
2022/07/12 11:21:55;;;;;;;11.63;2.80;;;24.10;95.80;;;;;;5045263;28;20409;-68
2022/07/12 11:24:22;;;;;;;19.27;3.30;;;24.20;95.80;;;;;;5045675;28;20413;-66
2022/07/12 11:26:49;;;;;;;7.70;2.40;;;24.30;95.60;;;;;;5043190;28;20424;-66
2022/07/12 11:29:16;;;;;;;4.23;1.70;;;24.10;95.00;;;;;;5044641;28;20445;-67
2022/07/12 11:31:42;;;;;;;3.47;1.50;;;23.70;94.80;;;;;;5044683;28;20425;-66
2022/07/12 11:34:18;;;;;;;4.30;1.70;;;23.70;94.20;;;;;;5046390;28;20917;-67
2022/07/12 11:36:45;;;;;;;2.20;1.83;;;23.60;94.80;;;;;;5044462;28;20258;-67
2022/07/12 11:39:11;;;;;;;2.83;1.80;;;23.70;94.80;;;;;;5044906;28;20449;-67
2022/07/12 11:41:37;;;;;;;5.23;2.00;;;23.90;94.40;;;;;;5042907;28;20483;-66
2022/07/12 11:44:02;;;;;;;6.77;2.70;;;23.90;94.70;;;;;;5045488;28;20305;-67
2022/07/12 11:46:29;;;;;;;5.97;2.60;;;24.10;95.00;;;;;;5044098;28;20175;-67
2022/07/12 11:48:54;;;;;;;3.90;2.20;;;24.00;95.10;;;;;;5046414;28;20211;-67
2022/07/12 11:51:20;;;;;;;3.30;1.70;;;24.00;95.30;;;;;;5048625;28;20710;-67
2022/07/12 11:53:53;;;;;;;4.20;1.77;;;24.00;93.80;;;;;;5047656;28;20202;-65
2022/07/12 11:56:31;;;;;;;1.80;1.53;;;24.10;93.30;;;;;;5046114;28;20472;-66
2022/07/12 11:58:57;;;;;;;2.90;1.60;;;24.10;92.10;;;;;;5047013;28;20461;-67
2022/07/12 12:01:25;;;;;;;5.53;1.63;;;23.90;91.40;;;;;;5049431;28;20418;-66
2022/07/12 12:03:51;;;;;;;16.03;3.20;;;24.10;91.40;;;;;;5050173;28;20528;-67
2022/07/12 12:06:17;;;;;;;2.17;1.80;;;24.10;92.00;;;;;;5050486;28;20523;-67
2022/07/12 12:08:44;;;;;;;2.13;1.60;;;24.40;92.40;;;;;;5049178;28;20433;-68
2022/07/12 12:11:10;;;;;;;7.00;2.03;;;24.50;90.20;;;;;;5049686;28;20178;-67
2022/07/12 12:13:36;;;;;;;20.63;4.27;;;24.50;89.00;;;;;;5050514;28;20487;-67
2022/07/12 12:16:05;;;;;;;6.70;3.13;;;24.80;90.20;;;;;;5049137;28;20611;-67
2022/07/12 12:18:35;;;;;;;8.70;5.00;;;25.10;88.70;;;;;;5049644;28;20763;-66
2022/07/12 12:21:10;;;;;;;2.90;1.43;;;25.30;86.80;;;;;;5050046;28;20410;-66
2022/07/12 12:23:37;;;;;;;13.27;4.00;;;25.20;83.60;;;;;;5050370;28;20425;-65
2022/07/12 12:26:21;;;;;;;2.67;1.60;;;25.20;82.60;;;;;;5049695;28;20421;-67
2022/07/12 12:28:50;;;;;;;2.00;1.63;;;25.20;78.90;;;;;;5049169;28;20445;-64
2022/07/12 12:31:19;;;;;;;2.60;2.13;;;25.00;77.90;;;;;;5043076;28;20925;-66
2022/07/12 12:33:48;;;;;;;4.77;1.70;;;25.00;78.50;;;;;;5048839;28;20762;-66
2022/07/12 12:36:24;;;;;;;4.23;1.87;;;24.90;78.80;;;;;;5049232;28;20428;-68
2022/07/12 12:38:58;;;;;;;35.40;5.10;;;24.80;75.50;;;;;;5048219;28;20547;-67
2022/07/12 12:41:26;;;;;;;1.63;1.40;;;24.90;76.20;;;;;;5049042;28;20843;-67
2022/07/12 12:44:07;;;;;;;2.83;1.97;;;24.60;72.50;;;;;;5051497;28;20494;-67
2022/07/12 12:46:45;;;;;;;7.27;2.40;;;24.90;73.80;;;;;;5050083;28;20417;-68
2022/07/12 12:49:11;;;;;;;9.67;2.30;;;25.00;73.20;;;;;;5048704;28;20455;-68
2022/07/12 12:51:58;;;;;;;7.17;1.73;;;25.20;74.00;;;;;;5050166;28;20417;-68
2022/07/12 12:54:34;;;;;;;9.23;2.80;;;25.20;73.40;;;;;;5045185;28;20521;-68
2022/07/12 12:57:00;;;;;;;5.10;1.80;;;25.40;73.00;;;;;;5049238;28;20523;-67